Time;durP1;ratioP1;P1;durP2;ratioP2;P2;SDS_P1;SDS_P2;PMS_P1;PMS_P2;Temp;Humidity;BMP_temperature;BMP_pressure;BME280_temperature;BME280_humidity;BME280_pressure;Samples;Min_cycle;Max_cycle;Signal;HPM_P1;HPM_P2
2023/03/11 00:02:10;;;;;;;;;;;-0.40;99.90;;;;;;5085664;28;19931;-82
2023/03/11 00:04:36;;;;;;;;;;;-0.40;99.90;;;;;;5080027;28;19967;-82
2023/03/11 00:07:04;;;;;;;;;;;-0.40;99.90;;;;;;5078093;28;19924;-83
2023/03/11 00:09:30;;;;;;;;;;;-0.40;99.90;;;;;;5080207;28;20034;-82
2023/03/11 00:11:55;;;;;;;;;;;-0.40;99.90;;;;;;5060215;28;20478;-82
2023/03/11 00:14:21;;;;;;;;;;;-0.40;99.90;;;;;;5079627;28;19928;-82
2023/03/11 00:16:47;;;;;;;;;;;-0.40;99.90;;;;;;5094488;28;19924;-82
2023/03/11 00:19:12;;;;;;;;;;;-0.30;99.90;;;;;;5059201;28;19925;-82
2023/03/11 00:21:38;;;;;;;;;;;-0.30;99.90;;;;;;5078660;28;20030;-82
2023/03/11 00:24:03;;;;;;;;;;;-0.30;99.90;;;;;;5102463;28;19972;-82
2023/03/11 00:26:29;;;;;;;;;;;-0.20;99.90;;;;;;5064069;28;19928;-82
2023/03/11 00:28:55;;;;;;;;;;;-0.20;99.90;;;;;;5073984;28;19936;-82
2023/03/11 00:31:20;;;;;;;;;;;-0.10;99.90;;;;;;5082510;28;20333;-82
2023/03/11 00:33:46;;;;;;;;;;;-0.10;99.90;;;;;;5065177;28;19928;-82
2023/03/11 00:36:20;;;;;;;;;;;-0.10;99.90;;;;;;5088351;28;20356;-82
2023/03/11 00:38:46;;;;;;;;;;;-0.10;99.90;;;;;;5076957;28;20662;-82
2023/03/11 00:41:11;;;;;;;;;;;0.00;99.90;;;;;;5059186;28;19953;-82
2023/03/11 00:43:37;;;;;;;;;;;0.00;99.90;;;;;;5083850;28;19928;-82
2023/03/11 00:46:03;;;;;;;;;;;-0.10;99.90;;;;;;5082158;28;19924;-82
2023/03/11 00:48:29;;;;;;;;;;;-0.10;99.90;;;;;;5072502;28;20323;-82
2023/03/11 00:50:54;;;;;;;;;;;-0.10;99.90;;;;;;5061915;28;19931;-83
2023/03/11 00:53:20;;;;;;;;;;;-0.10;99.90;;;;;;5074270;28;20783;-82
2023/03/11 00:55:46;;;;;;;;;;;-0.10;99.90;;;;;;5058097;28;19927;-83
2023/03/11 00:58:11;;;;;;;;;;;-0.10;99.90;;;;;;5067010;28;19924;-82
2023/03/11 01:00:38;;;;;;;;;;;-0.20;99.90;;;;;;5074279;28;19931;-83
2023/03/11 01:03:03;;;;;;;;;;;-0.20;99.90;;;;;;5084937;28;19957;-83
2023/03/11 01:05:30;;;;;;;;;;;-0.20;99.90;;;;;;5058807;28;19925;-84
2023/03/11 01:07:56;;;;;;;;;;;-0.20;99.90;;;;;;5068826;28;19923;-83
2023/03/11 01:10:21;;;;;;;;;;;-0.30;99.90;;;;;;5091352;28;19924;-84
2023/03/11 01:12:47;;;;;;;;;;;-0.30;99.90;;;;;;5059377;28;19924;-83
2023/03/11 01:15:27;;;;;;;;;;;-0.30;99.90;;;;;;5051937;28;19925;-84
2023/03/11 01:17:52;;;;;;;;;;;-0.30;99.90;;;;;;5065695;28;19924;-83
2023/03/11 01:20:18;;;;;;;;;;;-0.20;99.90;;;;;;5076669;28;19977;-84
2023/03/11 01:22:44;;;;;;;;;;;-0.30;99.90;;;;;;5078838;28;20026;-84
2023/03/11 01:25:13;;;;;;;;;;;-0.20;99.90;;;;;;5054856;28;23004;-83
2023/03/11 01:27:38;;;;;;;;;;;-0.20;99.90;;;;;;5079234;28;19939;-84
2023/03/11 01:30:04;;;;;;;;;;;-0.20;99.90;;;;;;5079848;28;19932;-84
2023/03/11 01:32:30;;;;;;;;;;;-0.10;99.90;;;;;;5062815;28;19945;-84
2023/03/11 01:34:55;;;;;;;;;;;-0.10;99.90;;;;;;5072222;28;20307;-83
2023/03/11 01:37:21;;;;;;;;;;;-0.10;99.90;;;;;;5073360;28;20336;-83
2023/03/11 01:39:47;;;;;;;;;;;-0.10;99.90;;;;;;5074798;28;19932;-83
2023/03/11 01:42:12;;;;;;;;;;;-0.20;99.90;;;;;;5059945;28;19957;-83
2023/03/11 01:44:38;;;;;;;;;;;-0.20;99.90;;;;;;5103572;28;19975;-83
2023/03/11 01:47:03;;;;;;;;;;;-0.20;99.90;;;;;;5076520;28;19928;-83
2023/03/11 01:49:29;;;;;;;;;;;-0.20;99.90;;;;;;5080753;28;19924;-83
2023/03/11 01:52:02;;;;;;;;;;;-0.20;99.90;;;;;;5064448;28;19925;-84
2023/03/11 01:54:32;;;;;;;;;;;-0.30;99.90;;;;;;5081280;28;19931;-84
2023/03/11 01:56:59;;;;;;;;;;;-0.30;99.90;;;;;;5082525;28;20011;-84
2023/03/11 01:59:27;;;;;;;;;;;-0.30;99.90;;;;;;5083912;28;19928;-84
2023/03/11 02:02:13;;;;;;;;;;;-0.40;99.90;;;;;;5081980;28;19931;-84
2023/03/11 02:04:39;;;;;;;;;;;-0.40;99.90;;;;;;5096358;28;19968;-84
2023/03/11 02:07:06;;;;;;;;;;;-0.40;99.90;;;;;;5073911;28;20371;-84
2023/03/11 02:09:31;;;;;;;;;;;-0.40;99.90;;;;;;5083316;28;19923;-84
2023/03/11 02:11:57;;;;;;;;;;;-0.50;99.90;;;;;;5072958;28;19930;-84
2023/03/11 02:14:24;;;;;;;;;;;-0.50;99.90;;;;;;5083630;28;19969;-84
2023/03/11 02:16:49;;;;;;;;;;;-0.50;99.90;;;;;;5072649;28;19951;-84
2023/03/11 02:19:30;;;;;;;;;;;-0.50;99.90;;;;;;5095476;28;19928;-84
2023/03/11 02:21:56;;;;;;;;;;;-0.50;99.90;;;;;;5105821;28;20415;-85
2023/03/11 02:24:28;;;;;;;;;;;-0.50;99.90;;;;;;5074429;28;19931;-85
2023/03/11 02:26:58;;;;;;;;;;;-0.50;99.90;;;;;;5080396;28;20362;-85
2023/03/11 02:29:24;;;;;;;;;;;-0.50;99.90;;;;;;5060780;28;19978;-84
2023/03/11 02:31:50;;;;;;;;;;;-0.50;99.90;;;;;;5073617;28;19988;-85
2023/03/11 02:34:26;;;;;;;;;;;-0.60;99.90;;;;;;5064049;28;19971;-84
2023/03/11 02:36:51;;;;;;;;;;;-0.60;99.90;;;;;;5075882;28;20253;-84
2023/03/11 02:39:28;;;;;;;;;;;-0.60;99.90;;;;;;5059635;28;19959;-85
2023/03/11 02:41:53;;;;;;;;;;;-0.60;99.90;;;;;;5102584;28;19940;-85
2023/03/11 02:44:19;;;;;;;;;;;-0.60;99.90;;;;;;5059887;28;19975;-85
2023/03/11 02:46:45;;;;;;;;;;;-0.50;99.90;;;;;;5066960;28;19969;-84
2023/03/11 02:49:11;;;;;;;;;;;-0.50;99.90;;;;;;5064397;28;20346;-85
2023/03/11 02:51:36;;;;;;;;;;;-0.50;99.90;;;;;;5075361;28;19928;-84
2023/03/11 02:54:03;;;;;;;;;;;-0.50;99.90;;;;;;5074844;28;19935;-85
2023/03/11 02:56:28;;;;;;;;;;;-0.50;99.90;;;;;;5077198;28;19924;-85
2023/03/11 02:58:54;;;;;;;;;;;-0.50;99.90;;;;;;5059613;28;19980;-85
2023/03/11 03:01:20;;;;;;;;;;;-0.50;99.90;;;;;;5075555;28;19928;-85
2023/03/11 03:03:46;;;;;;;;;;;-0.60;99.90;;;;;;5070517;28;19950;-85
2023/03/11 03:06:11;;;;;;;;;;;-0.60;99.90;;;;;;5066628;28;19935;-85
2023/03/11 03:08:37;;;;;;;;;;;-0.70;99.90;;;;;;5059261;28;19982;-85
2023/03/11 03:11:02;;;;;;;;;;;-0.80;99.90;;;;;;5073508;28;19981;-85
2023/03/11 03:13:29;;;;;;;;;;;-0.90;99.90;;;;;;5069438;28;19931;-85
2023/03/11 03:15:55;;;;;;;;;;;-0.90;99.90;;;;;;5053277;28;19935;-85
2023/03/11 03:18:21;;;;;;;;;;;-1.10;99.90;;;;;;5050946;28;19928;-85
2023/03/11 03:20:52;;;;;;;;;;;-1.10;99.90;;;;;;5090419;28;19931;-85
2023/03/11 03:23:18;;;;;;;;;;;-1.10;99.90;;;;;;5056732;28;19948;-86
2023/03/11 03:25:44;;;;;;;;;;;-1.20;99.90;;;;;;5066101;28;19933;-85
2023/03/11 03:28:10;;;;;;;;;;;-1.20;99.90;;;;;;5073424;28;19938;-85
2023/03/11 03:30:36;;;;;;;;;;;-1.20;99.90;;;;;;5074960;28;19946;-85
2023/03/11 03:33:02;;;;;;;;;;;-1.20;99.90;;;;;;5116655;27;19947;-85
2023/03/11 03:35:27;;;;;;;;;;;-1.20;99.90;;;;;;5064166;28;20256;-85
2023/03/11 03:37:54;;;;;;;;;;;-1.20;99.90;;;;;;5096157;28;19989;-85
2023/03/11 03:40:20;;;;;;;;;;;-1.20;99.90;;;;;;5078891;28;19924;-85
2023/03/11 03:42:45;;;;;;;;;;;-1.30;99.90;;;;;;5074229;28;19993;-84
2023/03/11 03:45:11;;;;;;;;;;;-1.40;99.90;;;;;;5056049;28;19924;-84
2023/03/11 03:47:37;;;;;;;;;;;-1.40;99.90;;;;;;5068666;28;19942;-84
2023/03/11 03:50:03;;;;;;;;;;;-1.50;99.90;;;;;;5064301;28;20018;-84
2023/03/11 03:52:29;;;;;;;;;;;-1.50;99.90;;;;;;5065686;28;19928;-84
2023/03/11 03:54:55;;;;;;;;;;;-1.50;99.90;;;;;;5056158;28;20015;-83
2023/03/11 03:57:20;;;;;;;;;;;-1.60;99.90;;;;;;5056012;28;19928;-83
2023/03/11 03:59:46;;;;;;;;;;;-1.70;99.90;;;;;;5055485;28;20606;-84
2023/03/11 04:02:11;;;;;;;;;;;-1.70;99.90;;;;;;5055625;28;19950;-83
2023/03/11 04:04:37;;;;;;;;;;;-1.70;99.90;;;;;;5080376;28;19964;-84
2023/03/11 04:07:06;;;;;;;;;;;-1.70;99.90;;;;;;5055511;28;19992;-83
2023/03/11 04:09:32;;;;;;;;;;;-1.70;99.90;;;;;;5055544;28;20014;-83
2023/03/11 04:11:58;;;;;;;;;;;-1.70;99.90;;;;;;5096789;28;19946;-82
2023/03/11 04:14:24;;;;;;;;;;;-1.60;99.90;;;;;;5081725;28;19927;-83
2023/03/11 04:16:50;;;;;;;;;;;-1.60;99.90;;;;;;5077899;28;19924;-82
2023/03/11 04:19:15;;;;;;;;;;;-1.60;99.90;;;;;;5073509;28;19931;-83
2023/03/11 04:21:41;;;;;;;;;;;-1.60;99.90;;;;;;5054306;28;19924;-82
2023/03/11 04:24:06;;;;;;;;;;;-1.60;99.90;;;;;;5078277;28;19997;-83
2023/03/11 04:26:32;;;;;;;;;;;-1.60;99.90;;;;;;5102243;28;19938;-83
2023/03/11 04:28:58;;;;;;;;;;;-1.70;99.90;;;;;;5063387;28;19924;-83
2023/03/11 04:31:23;;;;;;;;;;;-1.70;99.90;;;;;;5071171;28;19955;-82
2023/03/11 04:33:49;;;;;;;;;;;-1.70;99.90;;;;;;5062068;28;19978;-83
2023/03/11 04:36:14;;;;;;;;;;;-1.70;99.90;;;;;;5067386;28;19973;-83
2023/03/11 04:38:40;;;;;;;;;;;-1.80;99.90;;;;;;5063149;28;19924;-83
2023/03/11 04:41:06;;;;;;;;;;;-1.70;99.90;;;;;;5063232;28;20453;-83
2023/03/11 04:43:32;;;;;;;;;;;-1.80;99.90;;;;;;5066350;28;19925;-83
2023/03/11 04:45:58;;;;;;;;;;;-1.90;99.90;;;;;;5076625;28;19939;-83
2023/03/11 04:48:25;;;;;;;;;;;-1.90;99.90;;;;;;5072609;28;19932;-83
2023/03/11 04:50:51;;;;;;;;;;;-1.80;99.90;;;;;;5085715;28;19959;-83
2023/03/11 04:53:17;;;;;;;;;;;-1.90;99.90;;;;;;5113190;28;19923;-83
2023/03/11 04:55:42;;;;;;;;;;;-1.90;99.90;;;;;;5064362;28;19924;-83
2023/03/11 04:58:08;;;;;;;;;;;-2.00;99.90;;;;;;5067039;28;19924;-83
2023/03/11 05:00:34;;;;;;;;;;;-2.00;99.90;;;;;;5081561;28;19987;-82
2023/03/11 05:02:59;;;;;;;;;;;-2.00;99.90;;;;;;5069457;28;19938;-83
2023/03/11 05:05:25;;;;;;;;;;;-2.10;99.90;;;;;;5081643;28;19928;-82
2023/03/11 05:07:51;;;;;;;;;;;-2.10;99.90;;;;;;5078619;28;19924;-83
2023/03/11 05:10:21;;;;;;;;;;;-2.10;99.90;;;;;;5064203;28;19928;-83
2023/03/11 05:12:47;;;;;;;;;;;-2.20;99.90;;;;;;5079406;28;20031;-82
2023/03/11 05:15:12;;;;;;;;;;;-2.20;99.90;;;;;;5058733;28;20564;-83
2023/03/11 05:17:38;;;;;;;;;;;-2.20;99.90;;;;;;5057106;28;20457;-83
2023/03/11 05:20:06;;;;;;;;;;;-2.30;99.90;;;;;;5062443;28;19931;-83
2023/03/11 05:22:32;;;;;;;;;;;-2.20;99.90;;;;;;5074497;28;19935;-83
2023/03/11 05:24:58;;;;;;;;;;;-2.30;99.90;;;;;;5076352;28;20441;-83
2023/03/11 05:27:23;;;;;;;;;;;-2.30;99.90;;;;;;5097900;28;19955;-83
2023/03/11 05:29:49;;;;;;;;;;;-2.30;99.90;;;;;;5065543;28;19969;-82
2023/03/11 05:32:14;;;;;;;;;;;-2.30;99.90;;;;;;5067155;28;19959;-82
2023/03/11 05:34:40;;;;;;;;;;;-2.30;99.90;;;;;;5091296;28;19928;-83
2023/03/11 05:37:06;;;;;;;;;;;-2.40;99.90;;;;;;5076563;28;19924;-83
2023/03/11 05:39:32;;;;;;;;;;;-2.40;99.90;;;;;;5060649;28;19972;-83
2023/03/11 05:41:58;;;;;;;;;;;-2.50;99.90;;;;;;5092489;28;19925;-83
2023/03/11 05:44:23;;;;;;;;;;;-2.50;99.90;;;;;;5057946;28;19924;-83
2023/03/11 05:46:49;;;;;;;;;;;-2.50;99.90;;;;;;5061992;28;19966;-82
2023/03/11 05:49:14;;;;;;;;;;;-2.50;99.90;;;;;;5073555;28;19930;-83
2023/03/11 05:51:40;;;;;;;;;;;-2.50;99.90;;;;;;5067451;28;19927;-83
2023/03/11 05:54:13;;;;;;;;;;;-2.60;99.90;;;;;;5104442;28;20015;-83
2023/03/11 05:56:43;;;;;;;;;;;-2.60;99.90;;;;;;5094631;28;19924;-83
2023/03/11 05:59:09;;;;;;;;;;;-2.60;99.90;;;;;;5076694;28;20029;-82
2023/03/11 06:01:34;;;;;;;;;;;-2.60;99.90;;;;;;5081052;28;19975;-83
2023/03/11 06:04:00;;;;;;;;;;;-2.70;99.90;;;;;;5063086;28;19924;-82
2023/03/11 06:06:26;;;;;;;;;;;-2.70;99.90;;;;;;5076729;28;19924;-82
2023/03/11 06:08:53;;;;;;;;;;;-2.70;99.90;;;;;;5078781;28;19969;-83
2023/03/11 06:11:18;;;;;;;;;;;-2.70;99.90;;;;;;5085218;28;19924;-83
2023/03/11 06:13:44;;;;;;;;;;;-2.70;99.90;;;;;;5071974;28;20082;-83
2023/03/11 06:16:09;;;;;;;;;;;-2.70;99.90;;;;;;5060108;28;20385;-82
2023/03/11 06:18:35;;;;;;;;;;;-2.70;99.90;;;;;;5078094;28;19924;-82
2023/03/11 06:21:02;;;;;;;;;;;-2.70;99.90;;;;;;5077586;28;19930;-82
2023/03/11 06:23:28;;;;;;;;;;;-2.70;99.90;;;;;;5089710;28;19924;-82
2023/03/11 06:25:58;;;;;;;;;;;-2.70;99.90;;;;;;5109944;28;19924;-82
2023/03/11 06:28:23;;;;;;;;;;;-2.60;99.90;;;;;;5062764;28;19931;-82
2023/03/11 06:30:49;;;;;;;;;;;-2.60;99.90;;;;;;5084924;28;19924;-81
2023/03/11 06:33:15;;;;;;;;;;;-2.60;99.90;;;;;;5079044;28;19925;-81
2023/03/11 06:35:40;;;;;;;;;;;-2.60;99.90;;;;;;5080521;28;19931;-82
2023/03/11 06:38:06;;;;;;;;;;;-2.40;99.90;;;;;;5096047;28;19977;-81
2023/03/11 06:40:32;;;;;;;;;;;-2.30;99.90;;;;;;5079612;28;19969;-81
2023/03/11 06:42:58;;;;;;;;;;;-2.10;99.90;;;;;;5078663;28;19996;-81
2023/03/11 06:45:23;;;;;;;;;;;-2.00;99.90;;;;;;5072591;28;20324;-81
2023/03/11 06:47:49;;;;;;;;;;;-1.90;99.90;;;;;;5070208;28;20004;-81
2023/03/11 06:50:15;;;;;;;;;;;-1.80;99.90;;;;;;5067615;28;20491;-81
2023/03/11 06:52:40;;;;;;;;;;;-1.60;99.90;;;;;;5060009;28;20295;-81
2023/03/11 06:55:06;;;;;;;;;;;-1.30;99.90;;;;;;5062883;28;19932;-81
2023/03/11 06:57:32;;;;;;;;;;;-1.20;99.90;;;;;;5073575;28;19925;-81
2023/03/11 06:59:58;;;;;;;;;;;-1.00;99.90;;;;;;5086057;28;19932;-81
2023/03/11 07:02:23;;;;;;;;;;;-0.70;99.90;;;;;;5079033;28;19978;-81
2023/03/11 07:04:49;;;;;;;;;;;-0.60;99.90;;;;;;5058859;28;19931;-81
2023/03/11 07:07:14;;;;;;;;;;;-0.60;99.90;;;;;;5083330;28;20358;-82
2023/03/11 07:09:40;;;;;;;;;;;-0.70;99.90;;;;;;5070870;28;19924;-81
2023/03/11 07:12:06;;;;;;;;;;;-0.80;99.90;;;;;;5052076;28;19924;-80
2023/03/11 07:14:31;;;;;;;;;;;-0.80;99.90;;;;;;5056644;28;19924;-81
2023/03/11 07:16:57;;;;;;;;;;;-0.90;99.90;;;;;;5054660;28;19929;-81
2023/03/11 07:19:22;;;;;;;;;;;-0.90;99.90;;;;;;5079482;28;19936;-81
2023/03/11 07:21:48;;;;;;;;;;;-0.90;99.90;;;;;;5083259;28;19928;-81
2023/03/11 07:24:14;;;;;;;;;;;-0.80;99.90;;;;;;5060139;28;19935;-81
2023/03/11 07:26:40;;;;;;;;;;;-0.70;99.90;;;;;;5096526;28;19925;-81
2023/03/11 07:29:05;;;;;;;;;;;-0.60;99.90;;;;;;5125125;27;19953;-81
2023/03/11 07:31:32;;;;;;;;;;;-0.30;99.90;;;;;;5071787;28;19924;-81
2023/03/11 07:33:59;;;;;;;;;;;0.10;99.90;;;;;;5072881;28;20337;-81
2023/03/11 07:36:26;;;;;;;;;;;0.80;99.90;;;;;;5092844;28;19934;-82
2023/03/11 07:38:58;;;;;;;;;;;1.30;99.90;;;;;;5111955;27;19999;-82
2023/03/11 07:41:24;;;;;;;;;;;1.80;99.90;;;;;;5069833;28;19924;-83
2023/03/11 07:43:52;;;;;;;;;;;2.40;99.90;;;;;;5064329;28;19928;-82
2023/03/11 07:46:18;;;;;;;;;;;2.80;99.90;;;;;;5070715;28;19949;-83
2023/03/11 07:48:44;;;;;;;;;;;3.10;99.90;;;;;;5085093;28;19987;-83
2023/03/11 07:51:18;;;;;;;;;;;3.40;99.90;;;;;;5076562;28;19924;-83
2023/03/11 07:53:43;;;;;;;;;;;3.60;99.90;;;;;;5076052;28;20001;-81
2023/03/11 07:56:10;;;;;;;;;;;3.90;99.90;;;;;;5073986;28;20782;-80
2023/03/11 07:58:36;;;;;;;;;;;4.10;99.90;;;;;;5070062;28;19939;-79
2023/03/11 08:01:06;;;;;;;;;;;4.40;99.90;;;;;;5080229;28;19959;-79
2023/03/11 08:03:32;;;;;;;;;;;4.40;99.90;;;;;;5094246;28;19925;-79
2023/03/11 08:05:58;;;;;;;;;;;4.20;99.90;;;;;;5079868;28;20521;-79
2023/03/11 08:08:24;;;;;;;;;;;3.90;99.90;;;;;;5094285;28;19936;-80
2023/03/11 08:10:49;;;;;;;;;;;3.70;99.90;;;;;;5076046;28;19928;-80
2023/03/11 08:13:16;;;;;;;;;;;3.80;99.90;;;;;;5081559;28;19960;-81
2023/03/11 08:15:41;;;;;;;;;;;3.90;99.90;;;;;;5076044;28;19995;-80
2023/03/11 08:18:07;;;;;;;;;;;3.90;99.90;;;;;;5063196;28;19936;-80
2023/03/11 08:20:33;;;;;;;;;;;3.90;99.90;;;;;;5066012;28;20011;-80
2023/03/11 08:22:58;;;;;;;;;;;3.80;99.90;;;;;;5069994;28;20005;-79
2023/03/11 08:25:24;;;;;;;;;;;3.70;99.90;;;;;;5074485;28;19986;-80
2023/03/11 08:27:50;;;;;;;;;;;3.80;99.90;;;;;;5090571;28;20073;-79
2023/03/11 08:30:15;;;;;;;;;;;3.80;99.90;;;;;;5094864;28;19963;-79
2023/03/11 08:32:41;;;;;;;;;;;3.90;99.90;;;;;;5063624;28;19924;-79
2023/03/11 08:35:07;;;;;;;;;;;3.90;99.90;;;;;;5067736;28;20649;-79
2023/03/11 08:37:32;;;;;;;;;;;3.90;99.90;;;;;;5050187;28;20011;-78
2023/03/11 08:39:58;;;;;;;;;;;3.70;99.90;;;;;;5059900;28;19991;-78
2023/03/11 08:42:23;;;;;;;;;;;3.70;99.90;;;;;;5074847;28;19928;-78
2023/03/11 08:44:49;;;;;;;;;;;3.70;99.90;;;;;;5073587;28;19924;-78
2023/03/11 08:47:14;;;;;;;;;;;3.90;99.90;;;;;;5063149;28;19935;-78
2023/03/11 08:49:40;;;;;;;;;;;4.00;99.90;;;;;;5068747;28;19971;-79
2023/03/11 08:52:06;;;;;;;;;;;4.00;99.90;;;;;;5097770;28;19931;-79
2023/03/11 08:54:31;;;;;;;;;;;4.00;99.90;;;;;;5072452;28;19969;-78
2023/03/11 08:57:01;;;;;;;;;;;4.10;99.90;;;;;;5072552;28;19959;-78
2023/03/11 08:59:27;;;;;;;;;;;4.10;99.90;;;;;;5071182;28;19924;-78
2023/03/11 09:01:53;;;;;;;;;;;4.20;99.90;;;;;;5093367;28;19928;-78
2023/03/11 09:04:19;;;;;;;;;;;4.30;99.90;;;;;;5061151;28;19930;-79
2023/03/11 09:06:44;;;;;;;;;;;4.50;99.90;;;;;;5069563;28;19963;-79
2023/03/11 09:09:11;;;;;;;;;;;4.60;99.90;;;;;;5070636;28;19999;-78
2023/03/11 09:11:36;;;;;;;;;;;4.90;99.90;;;;;;5095322;28;19964;-78
2023/03/11 09:14:03;;;;;;;;;;;5.10;99.90;;;;;;5060128;28;19925;-78
2023/03/11 09:16:28;;;;;;;;;;;5.30;99.90;;;;;;5064842;28;20482;-78
2023/03/11 09:18:54;;;;;;;;;;;5.70;99.90;;;;;;5067254;28;19932;-79
2023/03/11 09:21:20;;;;;;;;;;;5.90;99.90;;;;;;5062710;28;19935;-80
2023/03/11 09:23:45;;;;;;;;;;;6.10;99.90;;;;;;5069979;28;19927;-80
2023/03/11 09:26:11;;;;;;;;;;;6.20;99.90;;;;;;5081871;28;19924;-80
2023/03/11 09:28:37;;;;;;;;;;;6.10;99.90;;;;;;5070286;28;19931;-80
2023/03/11 09:31:03;;;;;;;;;;;6.20;99.90;;;;;;5093703;28;19925;-80
2023/03/11 09:33:29;;;;;;;;;;;6.10;99.90;;;;;;5097567;28;20308;-80
2023/03/11 09:35:54;;;;;;;;;;;6.20;99.90;;;;;;5063413;28;19940;-81
2023/03/11 09:38:20;;;;;;;;;;;6.20;99.90;;;;;;5075411;28;20014;-81
2023/03/11 09:40:48;;;;;;;;;;;6.20;99.90;;;;;;5054814;28;19935;-83
2023/03/11 09:43:26;;;;;;;;;;;6.20;99.90;;;;;;5103238;28;20029;-81
2023/03/11 09:46:10;;;;;;;;;;;6.60;99.90;;;;;;5070328;28;19928;-81
2023/03/11 09:48:41;;;;;;;;;;;7.20;99.90;;;;;;5073320;28;19924;-81
2023/03/11 09:51:07;;;;;;;;;;;7.80;99.90;;;;;;5082330;28;20002;-81
2023/03/11 09:53:40;;;;;;;;;;;8.20;99.90;;;;;;5090646;28;19924;-82
2023/03/11 09:56:08;;;;;;;;;;;8.50;99.90;;;;;;5076537;28;19995;-84
2023/03/11 09:58:39;;;;;;;;;;;8.90;99.90;;;;;;5076631;28;19924;-82
2023/03/11 10:01:14;;;;;;;;;;;9.10;99.90;;;;;;5078894;28;19935;-84
2023/03/11 10:03:39;;;;;;;;;;;9.40;99.90;;;;;;5073351;28;19928;-83
2023/03/11 10:06:22;;;;;;;;;;;9.50;99.90;;;;;;5061207;28;19992;-83
2023/03/11 10:08:54;;;;;;;;;;;9.70;99.90;;;;;;5077697;28;20033;-82
2023/03/11 10:11:20;;;;;;;;;;;9.80;99.90;;;;;;5071412;28;19928;-83
2023/03/11 10:14:08;;;;;;;;;;;9.90;99.90;;;;;;5032734;28;19968;-83
2023/03/11 10:16:50;;;;;;;;;;;10.00;99.90;;;;;;5090866;28;19929;-82
2023/03/11 10:19:16;;;;;;;;;;;10.10;99.90;;;;;;5090675;28;19978;-83
2023/03/11 10:21:47;;;;;;;;;;;9.90;99.90;;;;;;5084981;28;19933;-83
2023/03/11 10:24:31;;;;;;;;;;;9.40;99.90;;;;;;5092194;28;20390;-83
2023/03/11 10:27:00;;;;;;;;;;;9.10;99.90;;;;;;5060036;28;20016;-83
2023/03/11 10:29:27;;;;;;;;;;;8.50;99.90;;;;;;5087793;28;19935;-83
2023/03/11 10:32:14;;;;;;;;;;;8.00;99.90;;;;;;5074055;28;19929;-83
2023/03/11 10:34:42;;;;;;;;;;;7.40;99.90;;;;;;5082303;28;19933;-83
2023/03/11 10:37:28;;;;;;;;;;;7.10;99.90;;;;;;5065651;28;19940;-82
2023/03/11 10:39:56;;;;;;;;;;;6.90;99.90;;;;;;5060283;28;19933;-81
2023/03/11 10:42:23;;;;;;;;;;;6.50;99.90;;;;;;5074261;28;19925;-80
2023/03/11 10:44:49;;;;;;;;;;;6.40;99.90;;;;;;5074499;28;20001;-80
2023/03/11 10:47:19;;;;;;;;;;;6.20;99.90;;;;;;5042089;28;19933;-81
2023/03/11 10:49:44;;;;;;;;;;;6.20;99.90;;;;;;5069821;28;19943;-81
2023/03/11 10:52:10;;;;;;;;;;;6.00;99.90;;;;;;5054889;28;20127;-81
2023/03/11 10:54:38;;;;;;;;;;;6.00;99.90;;;;;;5072534;28;19961;-80
2023/03/11 10:57:17;;;;;;;;;;;5.90;99.90;;;;;;5073327;28;19948;-80
2023/03/11 10:59:48;;;;;;;;;;;5.90;99.90;;;;;;5036139;28;19933;-80
2023/03/11 11:02:30;;;;;;;;;;;5.90;99.90;;;;;;5071941;28;19992;-80
2023/03/11 11:05:05;;;;;;;;;;;5.90;99.90;;;;;;5053698;28;19930;-80
2023/03/11 11:07:32;;;;;;;;;;;6.00;99.90;;;;;;5072711;28;19932;-80
2023/03/11 11:10:10;;;;;;;;;;;6.00;99.90;;;;;;5081421;28;19925;-80
2023/03/11 11:12:37;;;;;;;;;;;6.00;99.90;;;;;;5051956;28;19925;-83
2023/03/11 11:15:02;;;;;;;;;;;6.00;99.90;;;;;;5019267;28;19926;-83
2023/03/11 11:17:32;;;;;;;;;;;6.00;99.90;;;;;;5065521;28;19940;-83
2023/03/11 11:19:59;;;;;;;;;;;5.90;99.90;;;;;;5038021;28;19924;-84
2023/03/11 11:22:26;;;;;;;;;;;5.90;99.90;;;;;;5077937;28;19929;-84
2023/03/11 11:24:53;;;;;;;;;;;5.80;99.90;;;;;;5085636;28;19957;-83
2023/03/11 11:27:26;;;;;;;;;;;5.90;99.90;;;;;;5084102;28;19936;-84
2023/03/11 11:30:07;;;;;;;;;;;5.80;99.90;;;;;;5090376;28;19929;-84
2023/03/11 11:32:33;;;;;;;;;;;5.80;99.90;;;;;;5061821;28;19968;-83
2023/03/11 11:35:07;;;;;;;;;;;5.90;99.90;;;;;;5075584;28;19925;-84
2023/03/11 11:37:34;;;;;;;;;;;5.90;99.90;;;;;;5007883;28;19963;-83
2023/03/11 11:40:16;;;;;;;;;;;5.90;99.90;;;;;;5054445;28;19951;-83
2023/03/11 11:42:48;;;;;;;;;;;6.00;99.90;;;;;;5093209;28;20019;-82
2023/03/11 11:45:18;;;;;;;;;;;6.00;99.90;;;;;;5069152;28;19965;-82
2023/03/11 11:47:47;;;;;;;;;;;6.00;99.90;;;;;;5084328;28;20427;-82
2023/03/11 11:50:25;;;;;;;;;;;6.10;99.90;;;;;;5083572;28;20340;-82
2023/03/11 11:53:03;;;;;;;;;;;6.10;99.90;;;;;;5076230;28;20364;-82
2023/03/11 11:55:29;;;;;;;;;;;6.10;99.90;;;;;;5084286;28;19971;-82
2023/03/11 11:57:55;;;;;;;;;;;6.20;99.90;;;;;;5082429;28;20381;-82
2023/03/11 12:00:24;;;;;;;;;;;6.20;99.90;;;;;;5095562;28;19969;-82
2023/03/11 12:02:49;;;;;;;;;;;6.30;99.90;;;;;;5078834;28;19940;-81
2023/03/11 12:05:22;;;;;;;;;;;6.30;99.90;;;;;;5091098;28;19926;-82
2023/03/11 12:07:50;;;;;;;;;;;6.30;99.90;;;;;;5068932;28;19932;-82
2023/03/11 12:10:22;;;;;;;;;;;6.40;99.90;;;;;;5086396;28;19932;-82
2023/03/11 12:12:57;;;;;;;;;;;6.60;99.90;;;;;;5065693;28;19929;-82
2023/03/11 12:15:25;;;;;;;;;;;6.70;99.90;;;;;;5085181;28;20297;-82
2023/03/11 12:17:53;;;;;;;;;;;6.80;99.90;;;;;;5088298;28;19929;-82
2023/03/11 12:20:33;;;;;;;;;;;6.70;99.90;;;;;;5090400;28;20023;-82
2023/03/11 12:23:08;;;;;;;;;;;6.60;99.90;;;;;;5079256;28;19975;-83
2023/03/11 12:25:46;;;;;;;;;;;6.60;99.90;;;;;;5084521;28;19932;-82
2023/03/11 12:28:18;;;;;;;;;;;6.60;99.90;;;;;;5078469;28;19979;-81
2023/03/11 12:30:55;;;;;;;;;;;6.60;99.90;;;;;;5030224;28;21388;-80
2023/03/11 12:33:29;;;;;;;;;;;6.70;99.90;;;;;;5074556;28;20026;-80
2023/03/11 12:35:56;;;;;;;;;;;6.90;99.90;;;;;;5048908;28;19936;-80
2023/03/11 12:38:31;;;;;;;;;;;7.00;99.90;;;;;;5077300;28;19929;-81
2023/03/11 12:41:04;;;;;;;;;;;7.20;99.90;;;;;;5046658;28;19937;-80
2023/03/11 12:43:32;;;;;;;;;;;7.30;99.90;;;;;;5059105;28;19991;-80
2023/03/11 12:46:04;;;;;;;;;;;7.30;97.50;;;;;;5048403;28;19975;-80
2023/03/11 12:48:33;;;;;;;;;;;7.20;99.90;;;;;;5038960;28;19952;-79
2023/03/11 12:50:59;;;;;;;;;;;7.20;99.90;;;;;;5078856;28;19940;-80
2023/03/11 12:53:40;;;;;;;;;;;7.20;99.90;;;;;;5085287;28;19981;-80
2023/03/11 12:56:14;;;;;;;;;;;7.10;99.90;;;;;;5076698;28;19933;-80
2023/03/11 12:58:40;;;;;;;;;;;7.20;99.90;;;;;;5039629;28;19972;-80
2023/03/11 13:01:14;;;;;;;;;;;7.30;99.90;;;;;;5071341;28;19929;-80
2023/03/11 13:03:49;;;;;;;;;;;7.40;99.90;;;;;;5040939;28;19932;-79
2023/03/11 13:06:44;;;;;;;;;;;7.50;98.70;;;;;;5029419;28;19930;-80
2023/03/11 13:09:16;;;;;;;;;;;7.70;99.10;;;;;;5041600;28;19940;-80
2023/03/11 13:11:43;;;;;;;;;;;7.60;99.90;;;;;;5087986;28;20412;-81
2023/03/11 13:14:10;;;;;;;;;;;7.60;99.90;;;;;;5073690;28;19962;-80
2023/03/11 13:16:37;;;;;;;;;;;7.70;99.90;;;;;;5080199;28;19928;-80
2023/03/11 13:19:22;;;;;;;;;;;7.60;95.20;;;;;;5053957;28;19938;-80
2023/03/11 13:21:48;;;;;;;;;;;7.60;94.60;;;;;;5075811;28;19929;-81
2023/03/11 13:24:25;;;;;;;;;;;7.60;93.90;;;;;;5064227;28;19925;-82
2023/03/11 13:26:52;;;;;;;;;;;7.60;95.20;;;;;;5059403;28;19986;-81
2023/03/11 13:29:23;;;;;;;;;;;7.50;96.60;;;;;;5079596;28;19929;-81
2023/03/11 13:31:52;;;;;;;;;;;7.50;95.70;;;;;;5046885;28;19933;-81
2023/03/11 13:34:27;;;;;;;;;;;7.50;93.50;;;;;;5047151;28;20285;-81
2023/03/11 13:36:52;;;;;;;;;;;7.50;91.70;;;;;;5075257;28;20373;-82
2023/03/11 13:39:27;;;;;;;;;;;7.40;92.60;;;;;;5087869;28;19968;-81
2023/03/11 13:41:53;;;;;;;;;;;7.30;89.20;;;;;;5074838;28;19932;-82
2023/03/11 13:44:18;;;;;;;;;;;7.30;91.20;;;;;;5043233;28;19925;-82
2023/03/11 13:46:48;;;;;;;;;;;7.30;90.30;;;;;;5079050;28;19925;-82
2023/03/11 13:49:32;;;;;;;;;;;7.30;91.00;;;;;;5065382;28;19932;-82
2023/03/11 13:52:00;;;;;;;;;;;7.30;88.40;;;;;;5056566;28;19936;-83
2023/03/11 13:54:30;;;;;;;;;;;7.30;90.30;;;;;;5087567;28;19925;-82
2023/03/11 13:57:00;;;;;;;;;;;7.30;91.10;;;;;;5069385;28;19929;-83
2023/03/11 13:59:27;;;;;;;;;;;7.30;86.60;;;;;;5078270;28;19929;-83
2023/03/11 14:01:54;;;;;;;;;;;7.30;88.60;;;;;;5055762;28;19929;-84
2023/03/11 14:04:31;;;;;;;;;;;7.30;87.70;;;;;;5082536;28;19924;-82
2023/03/11 14:06:57;;;;;;;;;;;7.30;87.80;;;;;;5072974;28;19996;-83
2023/03/11 14:09:24;;;;;;;;;;;7.30;90.90;;;;;;5083131;28;19929;-83
2023/03/11 14:11:51;;;;;;;;;;;7.30;91.30;;;;;;5085952;28;20460;-83
2023/03/11 14:14:40;;;;;;;;;;;7.30;87.60;;;;;;5076380;28;20016;-83
2023/03/11 14:17:09;;;;;;;;;;;7.30;91.20;;;;;;5048045;28;20337;-83
2023/03/11 14:19:35;;;;;;;;;;;7.40;90.10;;;;;;5084083;28;19933;-83
2023/03/11 14:22:01;;;;;;;;;;;7.50;91.70;;;;;;5071455;28;20273;-82
2023/03/11 14:24:30;;;;;;;;;;;7.50;90.30;;;;;;5045492;28;19931;-83
2023/03/11 14:26:58;;;;;;;;;;;7.60;94.80;;;;;;5087841;28;19947;-83
2023/03/11 14:29:50;;;;;;;;;;;7.60;94.80;;;;;;5081841;28;19944;-83